Time;durP1;ratioP1;P1;durP2;ratioP2;P2;SDS_P1;SDS_P2;PMS_P1;PMS_P2;Temp;Humidity;BMP_temperature;BMP_pressure;BME280_temperature;BME280_humidity;BME280_pressure;Samples;Min_cycle;Max_cycle;Signal;HPM_P1;HPM_P2
2022/06/27 00:01:49;;;;;;;12.45;8.25;;;;;;;16.94;79.25;101461.81;5065646;28;20021;-48
2022/06/27 00:04:14;;;;;;;8.68;7.75;;;;;;;16.96;79.52;101453.63;5060217;28;20047;-48
2022/06/27 00:06:39;;;;;;;9.55;8.20;;;;;;;16.94;79.74;101448.38;5073936;28;20035;-48
2022/06/27 00:09:05;;;;;;;11.73;8.02;;;;;;;16.95;79.94;101455.47;5073639;28;20520;-49
2022/06/27 00:11:31;;;;;;;10.98;7.68;;;;;;;16.93;79.68;101461.94;5075087;28;20044;-48
2022/06/27 00:13:56;;;;;;;11.05;8.32;;;;;;;16.95;80.15;101454.59;5074783;28;20029;-48
2022/06/27 00:16:21;;;;;;;9.95;8.13;;;;;;;16.95;80.57;101460.81;5065208;28;20154;-49
2022/06/27 00:18:47;;;;;;;10.05;8.02;;;;;;;16.93;81.67;101457.41;5074281;28;20063;-50
2022/06/27 00:21:12;;;;;;;9.68;8.68;;;;;;;16.91;80.51;101459.41;5061044;28;20363;-48
2022/06/27 00:23:37;;;;;;;11.40;8.73;;;;;;;16.90;79.96;101464.91;5073850;28;20016;-49
2022/06/27 00:26:02;;;;;;;9.00;7.88;;;;;;;16.88;81.18;101467.75;5074841;28;20078;-50
2022/06/27 00:28:28;;;;;;;10.57;8.55;;;;;;;16.87;81.37;101466.06;5070354;28;20404;-48
2022/06/27 00:30:54;;;;;;;14.45;8.63;;;;;;;16.89;81.38;101474.81;5075267;28;20036;-48
2022/06/27 00:33:19;;;;;;;10.13;7.80;;;;;;;16.90;80.88;101464.91;5074833;28;20078;-52
2022/06/27 00:35:45;;;;;;;10.55;8.45;;;;;;;16.89;81.35;101469.44;5071169;28;20017;-49
2022/06/27 00:38:10;;;;;;;10.27;7.80;;;;;;;16.91;80.58;101475.50;5071195;28;20024;-49
2022/06/27 00:40:35;;;;;;;11.82;8.10;;;;;;;16.92;81.57;101474.53;5074527;28;20097;-50
2022/06/27 00:43:00;;;;;;;10.57;7.95;;;;;;;16.92;81.47;101481.72;5069344;28;20403;-47
2022/06/27 00:45:26;;;;;;;11.03;8.20;;;;;;;16.92;80.22;101479.03;5054467;28;20029;-49
2022/06/27 00:47:51;;;;;;;12.02;8.30;;;;;;;16.93;80.31;101478.88;5058039;28;20328;-51
2022/06/27 00:50:16;;;;;;;13.68;8.70;;;;;;;16.94;80.31;101491.31;5062929;28;20085;-48
2022/06/27 00:52:42;;;;;;;10.80;8.02;;;;;;;16.93;80.75;101491.47;5062146;28;20067;-49
2022/06/27 00:55:10;;;;;;;11.52;7.65;;;;;;;16.93;80.19;101494.16;5068561;28;20032;-48
2022/06/27 00:57:36;;;;;;;15.83;8.77;;;;;;;16.94;80.55;101485.13;5073730;28;20044;-49
2022/06/27 01:00:04;;;;;;;11.45;7.65;;;;;;;16.95;80.45;101489.47;5066617;28;20036;-48
2022/06/27 01:05:05;;;;;;;9.90;8.25;;;;;;;16.95;80.08;101489.47;5045636;22;20045;-77
2022/06/27 01:07:30;;;;;;;13.98;8.07;;;;;;;16.92;81.21;101492.44;5050392;28;20033;-77
2022/06/27 01:09:57;;;;;;;11.02;8.02;;;;;;;16.94;79.93;101488.63;5047298;28;20036;-77
2022/06/27 01:12:23;;;;;;;9.98;8.27;;;;;;;16.92;80.29;101482.56;5044774;28;20115;-77
2022/06/27 01:14:49;;;;;;;12.27;8.20;;;;;;;16.94;80.79;101493.16;5049715;28;20474;-77
2022/06/27 01:17:14;;;;;;;11.48;8.85;;;;;;;16.92;79.72;101496.00;5053068;28;20472;-77
2022/06/27 01:19:40;;;;;;;10.57;8.60;;;;;;;16.95;79.84;101495.72;5052030;28;20033;-77
2022/06/27 01:22:07;;;;;;;10.90;8.60;;;;;;;16.95;80.07;101502.91;5053063;28;20020;-77
2022/06/27 01:24:33;;;;;;;12.55;8.27;;;;;;;16.96;79.76;101507.28;5052734;28;20112;-77
2022/06/27 01:26:58;;;;;;;15.15;9.70;;;;;;;16.95;79.93;101500.22;5052249;28;20104;-76
2022/06/27 01:29:24;;;;;;;10.10;8.98;;;;;;;16.94;80.04;101495.84;5052708;28;20029;-77
2022/06/27 01:31:49;;;;;;;11.75;8.48;;;;;;;16.93;80.03;101494.16;5052144;28;20024;-77
2022/06/27 01:34:15;;;;;;;9.70;8.73;;;;;;;16.91;79.84;101488.91;5051939;28;20467;-76
2022/06/27 01:36:41;;;;;;;13.35;9.48;;;;;;;16.93;79.71;101481.56;5054232;28;20548;-77
2022/06/27 01:39:10;;;;;;;10.70;8.65;;;;;;;16.94;79.53;101479.75;5053464;28;20060;-76
2022/06/27 01:41:44;;;;;;;11.75;8.68;;;;;;;16.93;80.48;101473.50;5052294;28;20116;-77
2022/06/27 01:44:10;;;;;;;10.05;8.20;;;;;;;16.91;81.25;101458.56;5037569;28;20029;-77
2022/06/27 01:46:41;;;;;;;10.27;8.27;;;;;;;16.92;81.81;101447.69;5049399;28;20033;-77
2022/06/27 01:49:07;;;;;;;9.68;7.85;;;;;;;16.94;82.17;101455.59;5049728;28;20096;-77
2022/06/27 01:51:33;;;;;;;12.77;8.52;;;;;;;16.91;81.94;101456.72;5050649;28;20029;-77
2022/06/27 01:54:01;;;;;;;9.65;8.52;;;;;;;16.90;81.46;101455.03;5050615;28;20036;-77
2022/06/27 01:56:26;;;;;;;9.75;8.68;;;;;;;16.89;81.69;101453.34;5051254;28;20035;-76
2022/06/27 01:58:57;;;;;;;10.27;8.40;;;;;;;16.88;82.65;101454.31;5051911;28;20029;-77
2022/06/27 02:01:22;;;;;;;13.27;9.00;;;;;;;16.87;83.31;101443.72;5064826;28;20099;-77
2022/06/27 02:03:48;;;;;;;11.68;9.00;;;;;;;16.89;83.51;101447.13;5052050;28;20067;-77
2022/06/27 02:06:13;;;;;;;13.43;8.23;;;;;;;16.88;83.52;101442.75;5052431;28;20116;-77
2022/06/27 02:08:41;;;;;;;14.07;9.00;;;;;;;16.90;83.09;101441.59;5053507;28;20017;-77
2022/06/27 02:11:08;;;;;;;12.32;8.68;;;;;;;16.87;82.63;101444.59;5051898;28;20076;-77
2022/06/27 02:13:34;;;;;;;10.25;9.25;;;;;;;16.84;83.08;101434.13;5050965;28;20202;-76
2022/06/27 02:16:08;;;;;;;13.73;9.23;;;;;;;16.89;82.64;101436.41;5052121;28;20480;-77
2022/06/27 02:18:33;;;;;;;12.57;9.05;;;;;;;16.92;82.82;101441.47;5025310;28;20103;-77
2022/06/27 02:20:59;;;;;;;13.75;9.38;;;;;;;16.88;82.87;101437.38;5051987;28;20476;-77
2022/06/27 02:23:25;;;;;;;12.93;9.10;;;;;;;16.89;82.79;101434.56;5052352;28;20025;-77
2022/06/27 02:25:52;;;;;;;13.25;9.60;;;;;;;16.87;83.29;101425.81;5052272;28;20112;-77
2022/06/27 02:28:19;;;;;;;13.00;10.18;;;;;;;16.86;83.93;101421.44;5052417;28;20498;-77
2022/06/27 02:30:45;;;;;;;11.48;9.52;;;;;;;16.88;83.61;101429.34;5052535;28;20491;-77
2022/06/27 02:33:11;;;;;;;10.93;9.43;;;;;;;16.87;83.20;101423.13;5061881;28;20461;-77
2022/06/27 02:35:39;;;;;;;12.75;10.63;;;;;;;16.79;83.29;101420.28;5042572;28;20070;-77
2022/06/27 02:38:06;;;;;;;13.30;9.00;;;;;;;16.83;82.79;101425.19;5050364;28;20032;-77
2022/06/27 02:40:32;;;;;;;11.90;10.63;;;;;;;16.82;83.43;101426.22;5051349;28;20074;-78
2022/06/27 02:42:59;;;;;;;13.18;10.32;;;;;;;16.79;83.54;101423.81;5051232;28;20025;-76
2022/06/27 02:45:29;;;;;;;14.95;10.18;;;;;;;16.79;82.99;101413.09;5051534;28;20029;-77
2022/06/27 02:47:57;;;;;;;11.98;9.88;;;;;;;16.78;83.78;101413.22;5054717;28;20033;-77
2022/06/27 02:50:26;;;;;;;12.40;10.23;;;;;;;16.78;83.65;101411.38;5053627;28;20471;-77
2022/06/27 02:52:54;;;;;;;11.60;9.98;;;;;;;16.76;83.37;101399.13;5068508;28;20021;-78
2022/06/27 02:55:26;;;;;;;12.38;9.85;;;;;;;16.77;83.90;101406.16;5054804;28;20079;-78
2022/06/27 02:57:59;;;;;;;10.13;9.13;;;;;;;16.75;83.09;101395.59;5071457;28;20029;-77
2022/06/27 03:00:27;;;;;;;16.77;10.25;;;;;;;16.75;83.89;101397.41;5055430;28;20464;-77
2022/06/27 03:02:53;;;;;;;11.52;9.80;;;;;;;16.69;84.27;101380.06;5053317;28;20021;-78
2022/06/27 03:05:18;;;;;;;12.27;10.02;;;;;;;16.70;84.97;101383.59;5047097;28;20083;-78
2022/06/27 03:07:45;;;;;;;14.68;10.05;;;;;;;16.67;84.91;101375.81;5055667;28;20041;-77
2022/06/27 03:10:11;;;;;;;12.35;9.52;;;;;;;16.61;85.21;101380.78;5053890;28;20032;-78
2022/06/27 03:12:37;;;;;;;15.07;10.63;;;;;;;16.58;85.46;101386.44;5054975;28;20107;-77
2022/06/27 03:15:02;;;;;;;12.10;9.32;;;;;;;16.57;84.17;101383.88;5045433;28;20120;-77
2022/06/27 03:17:28;;;;;;;14.02;10.38;;;;;;;16.53;85.25;101377.13;5053907;28;20021;-78
2022/06/27 03:19:53;;;;;;;11.00;9.38;;;;;;;16.51;84.56;101387.16;5055891;28;20025;-77
2022/06/27 03:22:19;;;;;;;12.57;9.73;;;;;;;16.48;85.13;101380.25;5055012;28;20025;-77
2022/06/27 03:24:44;;;;;;;16.90;10.50;;;;;;;16.42;85.22;101379.00;5055017;28;20116;-77
2022/06/27 03:27:10;;;;;;;10.55;9.55;;;;;;;16.42;85.61;101387.03;5036162;28;20064;-78
2022/06/27 03:29:36;;;;;;;12.15;10.95;;;;;;;16.34;86.11;101378.00;5055797;28;20025;-77
2022/06/27 03:32:03;;;;;;;12.13;10.35;;;;;;;16.32;86.07;101378.16;5056609;28;20112;-77
2022/06/27 03:34:32;;;;;;;16.27;10.90;;;;;;;16.27;85.81;101383.09;5056775;28;20490;-77
2022/06/27 03:36:57;;;;;;;13.90;9.85;;;;;;;16.22;85.81;101370.13;5055645;28;20112;-77
2022/06/27 03:39:23;;;;;;;15.95;10.73;;;;;;;16.21;85.87;101383.66;5055815;28;20108;-77
2022/06/27 03:41:49;;;;;;;12.07;10.85;;;;;;;16.19;85.42;101377.59;5055811;28;20096;-77
2022/06/27 03:44:15;;;;;;;13.82;10.15;;;;;;;16.20;85.57;101377.44;5055700;28;20094;-77
2022/06/27 03:46:40;;;;;;;11.45;9.98;;;;;;;16.13;85.57;101379.00;5055748;28;20056;-77
2022/06/27 03:51:50;;;;;;;12.30;10.35;;;;;;;16.12;85.67;101384.47;5042932;28;20040;-77
2022/06/27 03:54:16;;;;;;;14.98;10.90;;;;;;;16.02;85.91;101385.34;5055712;28;20029;-77
2022/06/27 03:56:42;;;;;;;15.27;11.30;;;;;;;15.99;85.63;101395.50;5055244;28;20025;-77
2022/06/27 03:59:08;;;;;;;12.77;11.27;;;;;;;15.96;86.53;101390.41;5055218;28;20101;-78
2022/06/27 04:01:36;;;;;;;10.57;9.50;;;;;;;15.94;86.10;101403.94;5052564;28;20450;-77
2022/06/27 04:04:02;;;;;;;12.13;10.13;;;;;;;15.94;86.45;101420.03;5054710;28;20049;-77
2022/06/27 04:06:28;;;;;;;13.95;10.60;;;;;;;15.90;86.74;101408.75;5053923;28;20296;-78
2022/06/27 04:08:54;;;;;;;11.98;10.77;;;;;;;15.91;87.00;101399.69;5055220;28;20032;-77
2022/06/27 04:11:19;;;;;;;17.58;12.80;;;;;;;15.91;87.54;101397.03;5047963;28;20457;-77
2022/06/27 04:13:44;;;;;;;15.27;11.30;;;;;;;15.90;88.04;101397.16;5053795;28;20074;-77
2022/06/27 04:16:10;;;;;;;14.75;11.27;;;;;;;15.92;88.24;101405.94;5052534;28;20366;-77
2022/06/27 04:18:35;;;;;;;13.63;12.13;;;;;;;15.92;88.85;101392.53;5065926;28;20029;-77
2022/06/27 04:21:01;;;;;;;17.92;12.48;;;;;;;15.98;88.66;101383.91;5055275;28;20021;-77
2022/06/27 04:23:26;;;;;;;16.13;12.43;;;;;;;16.01;89.53;101380.97;5053338;28;20025;-79
2022/06/27 04:25:52;;;;;;;15.30;12.13;;;;;;;16.07;89.39;101371.50;5049286;28;20035;-77
2022/06/27 04:28:18;;;;;;;15.50;12.77;;;;;;;16.12;89.86;101368.41;5054834;28;20388;-77
2022/06/27 04:30:44;;;;;;;17.73;12.45;;;;;;;16.16;90.43;101359.94;5053298;28;20091;-77
2022/06/27 04:33:11;;;;;;;21.55;12.50;;;;;;;16.20;90.38;101355.16;5053223;28;20706;-76
2022/06/27 04:35:40;;;;;;;28.38;11.98;;;;;;;16.25;89.42;101344.84;5052986;28;20025;-79
2022/06/27 04:38:06;;;;;;;21.83;13.07;;;;;;;16.28;89.31;101329.31;5051965;28;20082;-78
2022/06/27 04:40:32;;;;;;;18.00;12.48;;;;;;;16.28;88.92;101313.22;5053546;28;20452;-77
2022/06/27 04:42:58;;;;;;;19.20;14.30;;;;;;;16.36;88.51;101333.13;5045441;28;20027;-78
2022/06/27 04:45:24;;;;;;;18.90;14.10;;;;;;;16.35;87.95;101336.78;5050074;28;20033;-78
2022/06/27 04:47:49;;;;;;;16.85;14.70;;;;;;;16.38;88.25;101340.03;5053872;28;20075;-77
2022/06/27 04:50:18;;;;;;;15.98;14.00;;;;;;;16.39;87.95;101332.84;5054229;28;20399;-77
2022/06/27 04:52:48;;;;;;;17.55;14.38;;;;;;;16.43;88.10;101348.50;5053425;28;20029;-77
2022/06/27 04:55:16;;;;;;;18.95;14.43;;;;;;;16.43;87.51;101353.84;5038764;28;20419;-77
2022/06/27 04:57:43;;;;;;;21.10;14.82;;;;;;;16.48;88.00;101352.59;5051856;28;20040;-76
2022/06/27 05:00:13;;;;;;;16.75;13.98;;;;;;;16.50;87.59;101358.66;5055722;28;20033;-77
2022/06/27 05:02:39;;;;;;;17.30;13.95;;;;;;;16.52;87.16;101343.25;5044022;28;20399;-76
2022/06/27 05:05:07;;;;;;;16.50;13.43;;;;;;;16.56;87.01;101350.88;5052621;28;20132;-77
2022/06/27 05:07:36;;;;;;;19.77;14.75;;;;;;;16.59;86.60;101347.91;5052309;28;20447;-77
2022/06/27 05:10:02;;;;;;;;;;;;;;;16.69;85.35;101339.00;5053054;28;20048;-77
2022/06/27 05:12:28;;;;;;;26.13;13.93;;;;;;;16.58;87.71;101322.06;5040446;28;20385;-78
2022/06/27 05:14:55;;;;;;;21.65;13.88;;;;;;;16.58;87.90;101318.56;5054757;28;20369;-77
2022/06/27 05:17:22;;;;;;;20.70;13.85;;;;;;;16.58;87.54;101330.13;5054588;28;20247;-77
2022/06/27 05:19:48;;;;;;;19.90;14.05;;;;;;;16.54;87.28;101330.56;5055920;28;20025;-77
2022/06/27 05:22:13;;;;;;;16.83;13.80;;;;;;;16.58;87.70;101346.19;5056075;28;20033;-77
2022/06/27 05:24:39;;;;;;;22.30;14.10;;;;;;;16.60;87.70;101351.44;5057018;28;20086;-77
2022/06/27 05:27:05;;;;;;;22.17;15.13;;;;;;;16.55;87.37;101354.53;5052299;28;20034;-77
2022/06/27 05:29:33;;;;;;;20.42;15.10;;;;;;;16.57;87.44;101347.22;5057865;28;20063;-77
2022/06/27 05:31:59;;;;;;;17.37;14.67;;;;;;;16.59;86.96;101357.81;5057867;28;20094;-78
2022/06/27 05:34:25;;;;;;;20.17;15.73;;;;;;;16.60;86.98;101383.59;5042881;28;20025;-78
2022/06/27 05:36:50;;;;;;;19.98;15.68;;;;;;;16.57;87.24;101398.16;5057707;28;20040;-78
2022/06/27 05:39:16;;;;;;;19.65;15.13;;;;;;;16.60;88.10;101410.44;5057206;28;20361;-77
2022/06/27 05:41:43;;;;;;;20.05;15.75;;;;;;;16.57;87.11;101416.94;5039823;28;20395;-78
2022/06/27 05:44:13;;;;;;;21.55;15.82;;;;;;;16.63;87.30;101437.81;5057444;28;20025;-78
2022/06/27 05:46:41;;;;;;;19.58;15.70;;;;;;;16.67;88.19;101448.25;5058096;28;20060;-77
2022/06/27 05:49:08;;;;;;;20.05;15.32;;;;;;;16.56;88.43;101436.69;5056772;28;20085;-78
2022/06/27 05:51:36;;;;;;;20.20;14.80;;;;;;;16.72;87.84;101462.94;5053883;28;20449;-77
2022/06/27 05:54:02;;;;;;;20.98;15.52;;;;;;;16.75;87.51;101470.72;5054839;28;20491;-80
2022/06/27 05:56:29;;;;;;;21.35;15.85;;;;;;;16.77;87.78;101486.63;5056009;28;20070;-81
2022/06/27 05:58:55;;;;;;;17.10;15.30;;;;;;;16.76;88.31;101467.00;5056536;28;20091;-81
2022/06/27 06:01:21;;;;;;;18.85;16.55;;;;;;;16.77;88.01;101458.00;5055384;28;20467;-81
2022/06/27 06:03:47;;;;;;;17.35;14.90;;;;;;;16.80;87.18;101460.41;5054785;28;20500;-80
2022/06/27 06:06:13;;;;;;;20.50;15.40;;;;;;;16.83;86.72;101445.84;5068176;28;20040;-80
2022/06/27 06:08:39;;;;;;;20.58;16.05;;;;;;;16.86;88.03;101432.16;5055519;28;20052;-82
2022/06/27 06:11:05;;;;;;;19.88;15.25;;;;;;;16.88;87.28;101440.06;5057312;28;20103;-81
2022/06/27 06:13:30;;;;;;;19.92;15.93;;;;;;;16.91;88.06;101448.66;5053701;28;20130;-80
2022/06/27 06:15:57;;;;;;;18.88;16.73;;;;;;;16.93;88.38;101448.53;5054336;28;20112;-81
2022/06/27 06:18:23;;;;;;;22.40;16.30;;;;;;;16.94;86.28;101450.25;5047664;28;20069;-81
2022/06/27 06:20:48;;;;;;;24.52;17.63;;;;;;;16.95;86.79;101455.47;5056562;28;20068;-81
2022/06/27 06:23:14;;;;;;;17.88;15.65;;;;;;;16.97;86.73;101468.69;5056081;28;20099;-81
2022/06/27 06:25:41;;;;;;;24.48;16.05;;;;;;;16.98;86.64;101489.19;5057704;28;20476;-81
2022/06/27 06:28:07;;;;;;;20.25;16.13;;;;;;;17.00;87.20;101489.88;5058798;28;20040;-81
2022/06/27 06:30:33;;;;;;;24.75;16.23;;;;;;;16.99;87.73;101477.47;5058420;28;20024;-81
2022/06/27 06:33:02;;;;;;;22.75;16.85;;;;;;;17.01;87.82;101484.38;5067524;28;20356;-81
2022/06/27 06:35:30;;;;;;;19.33;16.23;;;;;;;17.04;87.48;101482.41;5058578;28;20024;-80
2022/06/27 06:37:56;;;;;;;19.75;17.60;;;;;;;17.03;87.59;101476.19;5060173;28;20036;-81
2022/06/27 06:40:22;;;;;;;20.00;17.70;;;;;;;17.00;88.28;101461.25;5058584;28;20017;-81
2022/06/27 06:42:48;;;;;;;20.85;18.65;;;;;;;17.06;87.65;101445.53;5070700;28;20041;-81
2022/06/27 06:45:14;;;;;;;24.00;17.67;;;;;;;17.05;86.88;101414.31;5059186;28;20051;-81
2022/06/27 06:47:43;;;;;;;25.42;18.05;;;;;;;17.07;87.06;101412.31;5049593;28;20452;-82
2022/06/27 06:50:10;;;;;;;22.33;17.67;;;;;;;17.12;86.73;101410.03;5054114;28;20036;-81
2022/06/27 06:52:38;;;;;;;20.50;17.42;;;;;;;17.15;86.88;101420.50;5052554;28;20036;-81
2022/06/27 06:55:10;;;;;;;20.73;18.73;;;;;;;17.12;86.71;101393.94;5057133;28;20111;-81
2022/06/27 06:57:37;;;;;;;22.55;17.85;;;;;;;17.21;86.53;101403.81;5056876;28;20064;-82
2022/06/27 07:00:10;;;;;;;25.02;19.98;;;;;;;17.25;86.40;101404.34;5045038;28;20456;-82
2022/06/27 07:02:37;;;;;;;23.33;18.88;;;;;;;17.30;86.22;101424.41;5055130;28;20033;-82
2022/06/27 07:05:11;;;;;;;20.63;18.42;;;;;;;17.34;86.03;101425.78;5059108;28;20383;-81
2022/06/27 07:07:43;;;;;;;24.00;18.20;;;;;;;17.41;85.53;101419.84;5055719;28;20391;-81
2022/06/27 07:10:12;;;;;;;20.17;17.83;;;;;;;17.49;85.23;101403.84;5050004;28;20029;-81
2022/06/27 07:12:38;;;;;;;24.45;19.75;;;;;;;17.55;85.51;101400.53;5056872;28;20025;-80
2022/06/27 07:15:05;;;;;;;21.92;19.58;;;;;;;17.55;86.65;101396.03;5059066;28;20032;-80
2022/06/27 07:17:45;;;;;;;20.95;18.77;;;;;;;17.60;85.95;101414.34;5063544;28;20029;-81
2022/06/27 07:20:11;;;;;;;19.75;17.83;;;;;;;17.62;86.64;101422.25;5056332;28;20095;-80
2022/06/27 07:22:38;;;;;;;20.38;17.27;;;;;;;17.64;86.40;101426.50;5051375;28;20506;-80
2022/06/27 07:25:04;;;;;;;19.73;17.17;;;;;;;17.74;85.81;101435.34;5055793;28;20059;-81
2022/06/27 07:27:31;;;;;;;20.73;17.77;;;;;;;17.78;85.75;101445.81;5058181;28;20056;-80
2022/06/27 07:29:57;;;;;;;22.05;17.60;;;;;;;17.93;85.74;101453.22;5050543;28;20024;-81
2022/06/27 07:32:23;;;;;;;21.02;17.85;;;;;;;18.06;85.21;101435.91;5054375;28;20025;-82
2022/06/27 07:34:48;;;;;;;21.92;17.48;;;;;;;18.25;84.65;101438.47;5064138;28;20079;-82
2022/06/27 07:37:14;;;;;;;19.20;16.15;;;;;;;18.41;84.49;101440.44;5052822;28;20091;-81
2022/06/27 07:39:42;;;;;;;18.95;16.08;;;;;;;18.54;83.24;101445.44;5053908;28;20022;-82
2022/06/27 07:42:07;;;;;;;14.38;12.23;;;;;;;18.60;81.47;101444.81;5064430;28;20079;-81
2022/06/27 07:44:34;;;;;;;15.40;12.77;;;;;;;18.72;80.97;101452.63;5049176;28;20038;-81
2022/06/27 07:47:01;;;;;;;16.17;11.80;;;;;;;18.84;80.63;101446.03;5043359;28;20040;-81
2022/06/27 07:49:26;;;;;;;11.93;10.60;;;;;;;18.93;77.87;101452.31;5053955;28;20053;-81
2022/06/27 07:51:52;;;;;;;16.27;11.05;;;;;;;19.06;77.38;101459.97;5058319;28;20502;-80
2022/06/27 07:54:19;;;;;;;16.42;11.18;;;;;;;19.08;76.46;101466.03;5056967;28;20029;-81
2022/06/27 07:56:46;;;;;;;11.85;9.38;;;;;;;19.15;76.32;101470.66;5056835;28;20170;-82
2022/06/27 07:59:13;;;;;;;14.75;9.18;;;;;;;19.23;74.91;101481.47;5059257;28;20372;-82
2022/06/27 08:01:39;;;;;;;12.82;9.82;;;;;;;19.16;75.99;101482.25;5060716;28;20028;-82
2022/06/27 08:04:06;;;;;;;12.70;9.27;;;;;;;19.25;75.59;101483.97;5054064;28;20059;-80
2022/06/27 08:06:31;;;;;;;11.68;8.98;;;;;;;19.27;75.45;101482.00;5054939;28;20028;-80
2022/06/27 08:08:58;;;;;;;14.45;9.27;;;;;;;19.33;74.22;101478.66;5054757;28;20040;-80
2022/06/27 08:11:34;;;;;;;12.93;8.77;;;;;;;19.47;75.19;101485.31;5054441;28;20460;-81
2022/06/27 08:14:05;;;;;;;11.30;8.60;;;;;;;19.47;75.31;101481.75;5054403;28;20033;-80
2022/06/27 08:16:32;;;;;;;12.23;8.85;;;;;;;19.58;73.23;101471.56;5053846;28;20013;-81
2022/06/27 08:19:05;;;;;;;11.23;8.60;;;;;;;19.59;73.83;101459.75;5054263;28;20033;-81
2022/06/27 08:21:31;;;;;;;12.10;8.98;;;;;;;19.68;72.97;101468.72;5051636;28;20029;-81
2022/06/27 08:23:59;;;;;;;11.45;8.90;;;;;;;19.69;73.25;101478.50;5054183;28;20037;-82
2022/06/27 08:26:27;;;;;;;11.48;9.43;;;;;;;19.75;71.81;101487.81;5054636;28;20021;-80
2022/06/27 08:28:54;;;;;;;12.18;8.77;;;;;;;19.76;72.77;101497.59;5054796;28;20096;-80
2022/06/27 08:31:21;;;;;;;11.88;8.93;;;;;;;19.82;72.71;101509.56;5054012;28;20064;-80
2022/06/27 08:33:47;;;;;;;11.75;9.02;;;;;;;19.86;73.07;101506.38;5060167;28;20104;-77
2022/06/27 08:36:14;;;;;;;13.52;9.18;;;;;;;19.74;73.30;101505.81;5058505;28;20025;-78
2022/06/27 08:38:46;;;;;;;12.32;8.95;;;;;;;19.74;72.37;101513.06;5052071;28;20039;-78
2022/06/27 08:41:12;;;;;;;9.88;8.15;;;;;;;19.73;72.47;101498.75;5054740;28;20495;-77
2022/06/27 08:43:38;;;;;;;14.40;8.65;;;;;;;19.73;72.35;101496.03;5053907;28;20063;-77
2022/06/27 08:46:07;;;;;;;10.55;8.68;;;;;;;19.75;72.79;101504.84;5053643;28;20021;-77
2022/06/27 08:48:37;;;;;;;12.00;9.05;;;;;;;19.83;72.87;101504.00;5051728;28;20028;-78
2022/06/27 08:51:05;;;;;;;13.45;10.32;;;;;;;19.79;72.83;101505.34;5055486;28;20067;-77
2022/06/27 08:53:32;;;;;;;11.88;10.05;;;;;;;19.83;74.23;101505.88;5053513;28;20055;-78
2022/06/27 08:55:58;;;;;;;12.88;10.18;;;;;;;19.82;73.96;101513.13;5054354;28;20527;-78
2022/06/27 08:58:25;;;;;;;13.80;10.00;;;;;;;19.88;72.47;101508.94;5055344;28;20071;-77
2022/06/27 09:00:50;;;;;;;12.32;9.52;;;;;;;19.84;72.82;101518.34;5052934;28;20479;-78
2022/06/27 09:03:22;;;;;;;12.85;11.40;;;;;;;19.92;72.48;101526.47;5053978;28;20140;-78
2022/06/27 09:06:02;;;;;;;12.98;11.02;;;;;;;19.89;73.46;101533.03;5048462;28;20072;-78
2022/06/27 09:08:31;;;;;;;15.55;11.00;;;;;;;19.94;72.13;101537.94;5056108;28;20047;-78
2022/06/27 09:10:59;;;;;;;16.02;11.88;;;;;;;20.01;71.90;101536.28;5051922;28;20036;-78
2022/06/27 09:13:27;;;;;;;15.33;10.90;;;;;;;20.05;71.10;101536.78;5054487;28;20111;-78
2022/06/27 09:15:59;;;;;;;14.02;11.00;;;;;;;20.10;72.66;101529.03;5053138;28;20039;-78
2022/06/27 09:18:36;;;;;;;15.23;11.60;;;;;;;20.14;70.99;101511.53;5052748;28;20119;-78
2022/06/27 09:21:09;;;;;;;13.52;10.50;;;;;;;20.26;71.27;101504.81;5054433;28;20025;-78
2022/06/27 09:23:47;;;;;;;13.20;10.27;;;;;;;20.36;70.81;101509.25;5053938;28;20020;-77
2022/06/27 09:26:27;;;;;;;12.00;9.45;;;;;;;20.40;68.84;101530.34;5048310;28;20043;-77
2022/06/27 09:28:56;;;;;;;10.40;9.13;;;;;;;20.52;70.19;101531.69;5054668;28;20472;-78
2022/06/27 09:31:25;;;;;;;13.70;9.52;;;;;;;20.57;68.27;101536.59;5053235;28;20031;-79
2022/06/27 09:34:14;;;;;;;;;;;;;;;20.76;70.43;101526.53;5059544;28;20055;-78
2022/06/27 09:36:42;;;;;;;8.82;7.47;;;;;;;20.71;68.76;101535.13;5058043;28;19909;-78
2022/06/27 09:39:19;;;;;;;8.40;7.00;;;;;;;20.73;66.95;101516.88;5053600;28;20028;-78
2022/06/27 09:41:50;;;;;;;9.30;6.53;;;;;;;20.88;64.09;101523.31;5052682;28;20113;-78
2022/06/27 09:44:24;;;;;;;8.98;6.57;;;;;;;20.93;63.37;101514.69;5050576;28;20086;-78
2022/06/27 09:46:58;;;;;;;9.35;6.78;;;;;;;20.86;62.70;101511.81;5057011;28;20074;-78
2022/06/27 09:49:26;;;;;;;9.45;5.30;;;;;;;21.07;62.34;101516.72;5043740;28;20025;-78
2022/06/27 09:51:53;;;;;;;12.85;5.68;;;;;;;21.18;63.29;101515.53;5054020;28;20103;-78
2022/06/27 09:54:20;;;;;;;8.73;5.30;;;;;;;21.25;61.51;101518.41;5053573;28;20150;-78
2022/06/27 09:56:50;;;;;;;7.20;4.75;;;;;;;21.28;62.22;101518.03;5056401;28;20048;-78
2022/06/27 09:59:16;;;;;;;5.80;4.18;;;;;;;21.30;61.52;101513.31;5056330;28;20021;-77
2022/06/27 10:01:43;;;;;;;9.10;4.60;;;;;;;21.37;62.80;101518.88;5055567;28;20029;-78
2022/06/27 10:04:09;;;;;;;9.48;4.38;;;;;;;21.43;60.62;101501.94;5055642;28;20182;-78
2022/06/27 10:06:36;;;;;;;7.95;4.90;;;;;;;21.44;59.08;101501.78;5052873;28;20036;-79
2022/06/27 10:09:04;;;;;;;9.07;5.13;;;;;;;21.56;60.96;101504.97;5054068;28;20029;-78
2022/06/27 10:11:30;;;;;;;10.20;4.93;;;;;;;21.67;63.48;101494.84;5058013;28;20028;-79
2022/06/27 10:14:22;;;;;;;11.07;5.60;;;;;;;21.89;62.80;101499.47;5056527;28;20044;-79
2022/06/27 10:16:58;;;;;;;9.35;5.95;;;;;;;21.96;59.10;101497.72;5052844;28;20049;-78
2022/06/27 10:19:29;;;;;;;9.90;5.35;;;;;;;21.95;59.02;101496.06;5057217;28;20033;-79
2022/06/27 10:21:56;;;;;;;9.23;5.30;;;;;;;22.01;60.80;101491.78;5067573;28;20033;-78
2022/06/27 10:24:21;;;;;;;10.30;6.10;;;;;;;22.17;58.07;101498.97;5056605;28;20169;-78
2022/06/27 10:26:57;;;;;;;9.25;5.22;;;;;;;22.21;60.75;101491.34;5057294;28;20061;-77
2022/06/27 10:29:28;;;;;;;10.75;5.32;;;;;;;22.31;59.47;101491.97;5061880;28;20025;-77
2022/06/27 10:31:57;;;;;;;12.43;5.70;;;;;;;22.34;60.72;101492.47;5058582;28;20055;-78
2022/06/27 10:34:37;;;;;;;12.43;6.00;;;;;;;22.46;59.75;101505.59;5057069;28;20097;-78
2022/06/27 10:37:21;;;;;;;7.43;5.25;;;;;;;22.51;59.56;101500.47;5056971;28;20021;-79
2022/06/27 10:39:47;;;;;;;11.15;4.85;;;;;;;22.42;57.63;101499.69;5066292;28;20451;-78
2022/06/27 10:42:47;;;;;;;8.02;4.40;;;;;;;22.57;59.14;101502.47;5058710;28;20025;-78
2022/06/27 10:45:29;;;;;;;7.25;4.85;;;;;;;22.53;59.02;101501.13;5060453;28;20025;-79
2022/06/27 10:47:59;;;;;;;9.55;4.65;;;;;;;22.45;58.67;101506.59;5066520;28;20068;-78
2022/06/27 10:50:40;;;;;;;14.20;5.57;;;;;;;22.46;58.46;101508.28;5056496;28;20072;-78
2022/06/27 10:53:25;;;;;;;8.88;5.60;;;;;;;22.44;58.67;101508.47;5055963;28;20039;-78
2022/06/27 10:55:51;;;;;;;9.50;5.45;;;;;;;22.35;56.48;101504.97;5057925;28;20029;-78
2022/06/27 10:58:22;;;;;;;7.80;4.57;;;;;;;22.21;57.66;101503.00;5057082;28;20067;-77
2022/06/27 11:00:47;;;;;;;5.47;4.07;;;;;;;22.08;58.91;101498.19;5056211;28;20446;-77
2022/06/27 11:03:24;;;;;;;5.97;3.90;;;;;;;22.02;58.47;101503.47;5046848;28;20057;-77
2022/06/27 11:06:06;;;;;;;9.95;3.15;;;;;;;21.96;56.49;101508.53;5055552;28;20029;-77
2022/06/27 11:08:36;;;;;;;4.82;2.53;;;;;;;21.92;57.17;101511.78;5055354;28;20029;-78
2022/06/27 11:11:03;;;;;;;6.60;2.70;;;;;;;21.93;56.46;101511.63;5056499;28;20025;-78
2022/06/27 11:13:37;;;;;;;4.60;2.60;;;;;;;22.01;57.70;101510.72;5056870;28;20452;-77
2022/06/27 11:16:07;;;;;;;6.55;2.78;;;;;;;22.11;56.17;101510.50;5056909;28;20025;-77
2022/06/27 11:18:44;;;;;;;4.18;2.47;;;;;;;22.06;57.74;101512.91;5048559;28;20033;-77
2022/06/27 11:21:11;;;;;;;9.73;2.97;;;;;;;22.13;56.22;101522.84;5061672;28;20028;-78
2022/06/27 11:23:51;;;;;;;7.70;2.38;;;;;;;22.13;55.15;101527.41;5056737;28;20025;-78